Terminal Aerodrome Forecast
Issued by NWS

Home | Current Version | Previous Version | Text Only | Print | Product List | Glossary On
Versions: 1 2 3 4 5 6 7 8 9 10 11 12 13 14 15 16 17 18 19 20 21
000
FTUS41 KBTV 310900 AAA
TAFSLK
TAF AMD
KSLK 310959Z 3110/0106 00000KT 2SM BR SCT002
      TEMPO 3110/3111 1/2SM FG OVC002
     FM311200 VRB03KT P6SM SCT040 BKN080
     FM311400 22007KT 6SM -SHRA BKN040 OVC060
     FM311900 23007KT P6SM VCSH BKN040
     FM010000 22004KT P6SM SCT040=

USA.gov is the U.S. government's official web portal to all federal, state and local government web resources and services.